Time;durP1;ratioP1;P1;durP2;ratioP2;P2;SDS_P1;SDS_P2;PMS_P1;PMS_P2;Temp;Humidity;BMP_temperature;BMP_pressure;BME280_temperature;BME280_humidity;BME280_pressure;Samples;Min_cycle;Max_cycle;Signal;HPM_P1;HPM_P2
2021/04/05 00:01:30;;;;;;;24.02;6.63;;;;;;;;;;5058573;28;31797;-73
2021/04/05 00:03:56;;;;;;;13.18;5.78;;;;;;;;;;5058487;28;33519;-72
2021/04/05 00:06:22;;;;;;;21.52;7.97;;;;;;;;;;5058144;28;33118;-72
2021/04/05 00:08:48;;;;;;;23.67;7.47;;;;;;;;;;5058724;28;31915;-72
2021/04/05 00:11:14;;;;;;;20.55;6.68;;;;;;;;;;5058938;28;31423;-72
2021/04/05 00:13:43;;;;;;;27.77;8.77;;;;;;;;;;5057797;28;32460;-73
2021/04/05 00:16:27;;;;;;;18.95;6.13;;;;;;;;;;5058038;28;32143;-73
2021/04/05 00:18:52;;;;;;;21.60;7.15;;;;;;;;;;5056681;28;30592;-72
2021/04/05 00:21:22;;;;;;;18.10;6.25;;;;;;;;;;5058793;28;32209;-72
2021/04/05 00:23:52;;;;;;;25.40;8.27;;;;;;;;;;5058187;28;33932;-73
2021/04/05 00:26:18;;;;;;;30.00;7.25;;;;;;;;;;5056728;28;32159;-73
2021/04/05 00:28:43;;;;;;;16.48;6.60;;;;;;;;;;5057267;28;30447;-73
2021/04/05 00:31:09;;;;;;;18.45;6.47;;;;;;;;;;5058218;28;32019;-73
2021/04/05 00:33:35;;;;;;;18.25;6.75;;;;;;;;;;5057349;28;31163;-74
2021/04/05 00:36:01;;;;;;;19.15;6.13;;;;;;;;;;5058174;28;33215;-73
2021/04/05 00:38:27;;;;;;;21.25;6.55;;;;;;;;;;5058544;28;32031;-73
2021/04/05 00:40:58;;;;;;;20.15;5.70;;;;;;;;;;5060711;28;31776;-73
2021/04/05 00:43:24;;;;;;;18.83;6.25;;;;;;;;;;5061011;28;32230;-73
2021/04/05 00:45:49;;;;;;;26.27;6.78;;;;;;;;;;5060794;28;33221;-73
2021/04/05 00:48:16;;;;;;;17.20;6.05;;;;;;;;;;5061397;28;31730;-73
2021/04/05 00:50:41;;;;;;;14.65;6.07;;;;;;;;;;5061693;28;33008;-73
2021/04/05 00:53:08;;;;;;;20.13;6.03;;;;;;;;;;5061726;28;33519;-73
2021/04/05 00:55:34;;;;;;;27.98;7.65;;;;;;;;;;5061464;28;32314;-73
2021/04/05 00:58:01;;;;;;;22.13;6.30;;;;;;;;;;5060438;28;31992;-73
2021/04/05 01:00:33;;;;;;;32.03;7.70;;;;;;;;;;5059674;28;32057;-73
2021/04/05 01:02:59;;;;;;;30.00;7.38;;;;;;;;;;5043631;28;31216;-73
2021/04/05 01:05:24;;;;;;;30.00;7.30;;;;;;;;;;5061190;28;32985;-73
2021/04/05 01:07:51;;;;;;;30.95;7.20;;;;;;;;;;5061179;28;32121;-73
2021/04/05 01:10:17;;;;;;;26.48;6.80;;;;;;;;;;5040491;28;32277;-73
2021/04/05 01:12:43;;;;;;;21.17;7.57;;;;;;;;;;5040645;28;31718;-73
2021/04/05 01:15:09;;;;;;;24.02;7.20;;;;;;;;;;5041189;28;32292;-73
2021/04/05 01:17:35;;;;;;;19.17;5.93;;;;;;;;;;5041524;28;32835;-74
2021/04/05 01:20:02;;;;;;;19.92;7.38;;;;;;;;;;5041069;28;31617;-73
2021/04/05 01:22:27;;;;;;;22.05;7.10;;;;;;;;;;5047106;28;32541;-73
2021/04/05 01:24:53;;;;;;;19.88;7.28;;;;;;;;;;5068649;28;31883;-73
2021/04/05 01:27:19;;;;;;;27.35;6.97;;;;;;;;;;5070083;28;31938;-73
2021/04/05 01:29:45;;;;;;;22.08;7.07;;;;;;;;;;5080892;28;32931;-73
2021/04/05 01:32:11;;;;;;;22.88;7.03;;;;;;;;;;5081529;28;32180;-73
2021/04/05 01:34:38;;;;;;;20.02;6.68;;;;;;;;;;5080805;28;32416;-73
2021/04/05 01:37:03;;;;;;;22.05;7.38;;;;;;;;;;5081448;28;32040;-73
2021/04/05 01:39:32;;;;;;;28.15;7.88;;;;;;;;;;5079768;28;30850;-73
2021/04/05 01:41:58;;;;;;;20.88;7.80;;;;;;;;;;5080978;28;32604;-73
2021/04/05 01:44:23;;;;;;;19.45;7.55;;;;;;;;;;5079824;28;32213;-73
2021/04/05 01:46:49;;;;;;;17.13;7.18;;;;;;;;;;5081207;28;32953;-73
2021/04/05 01:49:15;;;;;;;28.85;8.38;;;;;;;;;;5079895;28;32096;-72
2021/04/05 01:51:40;;;;;;;28.05;8.40;;;;;;;;;;5081030;28;33534;-73
2021/04/05 01:54:06;;;;;;;21.70;7.25;;;;;;;;;;5080516;28;32177;-72
2021/04/05 01:56:32;;;;;;;19.20;8.27;;;;;;;;;;5080870;28;32675;-72
2021/04/05 01:58:57;;;;;;;24.00;7.72;;;;;;;;;;5080386;28;32190;-73
2021/04/05 02:01:25;;;;;;;17.77;8.52;;;;;;;;;;5080632;28;32543;-73
2021/04/05 02:03:52;;;;;;;27.85;8.20;;;;;;;;;;5080046;28;33108;-73
2021/04/05 02:06:25;;;;;;;27.25;8.25;;;;;;;;;;5080613;28;31979;-73
2021/04/05 02:08:51;;;;;;;26.23;7.72;;;;;;;;;;5072095;28;31978;-73
2021/04/05 02:11:23;;;;;;;19.80;7.93;;;;;;;;;;5060392;28;33488;-73
2021/04/05 02:13:49;;;;;;;27.95;8.15;;;;;;;;;;5060342;28;32244;-73
2021/04/05 02:16:19;;;;;;;29.20;8.15;;;;;;;;;;5061126;28;32936;-73
2021/04/05 02:18:46;;;;;;;17.52;7.50;;;;;;;;;;5059807;28;30565;-73
2021/04/05 02:21:12;;;;;;;24.05;8.18;;;;;;;;;;5058903;28;33399;-73
2021/04/05 02:23:38;;;;;;;23.63;8.90;;;;;;;;;;5060136;28;32299;-73
2021/04/05 02:26:07;;;;;;;16.10;8.65;;;;;;;;;;5060472;28;32895;-73
2021/04/05 02:28:43;;;;;;;29.65;8.90;;;;;;;;;;5059664;28;31962;-73
2021/04/05 02:31:09;;;;;;;25.55;8.77;;;;;;;;;;5059249;28;32457;-73
2021/04/05 02:33:39;;;;;;;24.65;8.15;;;;;;;;;;5059452;28;32316;-73
2021/04/05 02:36:07;;;;;;;39.03;8.77;;;;;;;;;;5059299;28;31971;-72
2021/04/05 02:38:35;;;;;;;21.30;8.32;;;;;;;;;;5060186;28;32051;-72
2021/04/05 02:41:00;;;;;;;29.00;8.40;;;;;;;;;;5060997;28;32810;-72
2021/04/05 02:43:26;;;;;;;21.75;7.93;;;;;;;;;;5059650;28;31857;-72
2021/04/05 02:45:52;;;;;;;21.02;8.18;;;;;;;;;;5060169;28;32879;-72
2021/04/05 02:48:19;;;;;;;22.42;8.20;;;;;;;;;;5060461;28;31958;-73
2021/04/05 02:50:44;;;;;;;27.02;9.90;;;;;;;;;;5058947;28;33398;-73
2021/04/05 02:53:10;;;;;;;24.92;8.35;;;;;;;;;;5059412;28;31939;-73
2021/04/05 02:55:36;;;;;;;21.80;8.52;;;;;;;;;;5060369;28;32942;-72
2021/04/05 02:58:05;;;;;;;25.77;8.75;;;;;;;;;;5058469;28;31982;-72
2021/04/05 03:00:31;;;;;;;29.63;9.10;;;;;;;;;;5058516;28;32547;-72
2021/04/05 03:02:58;;;;;;;34.33;11.05;;;;;;;;;;5059957;28;33309;-72
2021/04/05 03:05:25;;;;;;;23.27;9.02;;;;;;;;;;5059090;28;32012;-73
2021/04/05 03:07:51;;;;;;;28.52;9.63;;;;;;;;;;5058965;28;31800;-73
2021/04/05 03:10:18;;;;;;;22.58;8.63;;;;;;;;;;5059449;28;32656;-73
2021/04/05 03:12:44;;;;;;;35.42;9.25;;;;;;;;;;5058767;28;32397;-73
2021/04/05 03:15:11;;;;;;;28.50;8.07;;;;;;;;;;5057331;28;30478;-73
2021/04/05 03:17:37;;;;;;;39.40;9.73;;;;;;;;;;5058401;28;32895;-73
2021/04/05 03:20:23;;;;;;;26.10;10.02;;;;;;;;;;5059240;28;33641;-73
2021/04/05 03:22:49;;;;;;;26.48;8.75;;;;;;;;;;5058636;28;33078;-73
2021/04/05 03:25:17;;;;;;;28.85;9.15;;;;;;;;;;5058309;28;31909;-73
2021/04/05 03:27:44;;;;;;;31.17;9.48;;;;;;;;;;5058776;28;31173;-73
2021/04/05 03:30:11;;;;;;;38.63;10.70;;;;;;;;;;5057224;28;31821;-73
2021/04/05 03:32:39;;;;;;;37.35;10.98;;;;;;;;;;5059481;28;31958;-73
2021/04/05 03:35:06;;;;;;;34.28;9.23;;;;;;;;;;5058269;28;33008;-73
2021/04/05 03:37:32;;;;;;;24.98;9.13;;;;;;;;;;5058946;28;32121;-73
2021/04/05 03:39:58;;;;;;;25.55;9.93;;;;;;;;;;5057523;28;32661;-73
2021/04/05 03:42:32;;;;;;;32.17;9.93;;;;;;;;;;5041464;28;31441;-73
2021/04/05 03:45:01;;;;;;;26.30;9.15;;;;;;;;;;5059289;28;31785;-73
2021/04/05 03:47:26;;;;;;;30.55;9.80;;;;;;;;;;5059270;28;31424;-73
2021/04/05 03:49:54;;;;;;;28.90;9.65;;;;;;;;;;5058958;28;32271;-73
2021/04/05 03:52:26;;;;;;;28.80;10.27;;;;;;;;;;5059170;28;32212;-73
2021/04/05 03:54:53;;;;;;;31.25;10.02;;;;;;;;;;5059509;28;37010;-73
2021/04/05 03:57:20;;;;;;;24.23;11.07;;;;;;;;;;5055945;28;32581;-72
2021/04/05 03:59:51;;;;;;;36.55;11.98;;;;;;;;;;5055887;28;32741;-72
2021/04/05 04:02:19;;;;;;;30.63;10.35;;;;;;;;;;5056983;28;32976;-72
2021/04/05 04:04:50;;;;;;;22.50;9.13;;;;;;;;;;5054541;28;30499;-73
2021/04/05 04:09:43;;;;;;;24.73;10.13;;;;;;;;;;5056571;28;32662;-73
2021/04/05 04:12:13;;;;;;;26.13;10.85;;;;;;;;;;5053910;28;31843;-72
2021/04/05 04:14:40;;;;;;;29.10;10.75;;;;;;;;;;5056904;28;31908;-72
2021/04/05 04:17:07;;;;;;;24.38;10.15;;;;;;;;;;5057854;28;31860;-72
2021/04/05 04:19:33;;;;;;;36.03;11.98;;;;;;;;;;5057319;28;33627;-72
2021/04/05 04:21:59;;;;;;;27.05;10.07;;;;;;;;;;5057902;28;32536;-72
2021/04/05 04:24:27;;;;;;;25.55;9.35;;;;;;;;;;5057206;28;31301;-72
2021/04/05 04:26:52;;;;;;;29.77;10.57;;;;;;;;;;5058144;28;32977;-72
2021/04/05 04:29:19;;;;;;;39.50;11.02;;;;;;;;;;5057730;28;32720;-72
2021/04/05 04:31:45;;;;;;;40.58;10.77;;;;;;;;;;5059594;28;32983;-72
2021/04/05 04:34:14;;;;;;;32.78;10.98;;;;;;;;;;5048183;28;31757;-72
2021/04/05 04:36:40;;;;;;;26.42;9.82;;;;;;;;;;5042119;28;32999;-73
2021/04/05 04:39:06;;;;;;;40.08;12.13;;;;;;;;;;5052533;28;32266;-73
2021/04/05 04:41:31;;;;;;;35.40;12.57;;;;;;;;;;5050733;28;32909;-73
2021/04/05 04:43:58;;;;;;;28.40;12.60;;;;;;;;;;5063308;28;32684;-73
2021/04/05 04:46:23;;;;;;;31.42;10.85;;;;;;;;;;5066500;28;32995;-74
2021/04/05 04:48:56;;;;;;;32.88;11.68;;;;;;;;;;5060131;28;32428;-73
2021/04/05 04:51:21;;;;;;;34.25;10.85;;;;;;;;;;5058015;28;32306;-74
2021/04/05 04:53:48;;;;;;;40.05;12.07;;;;;;;;;;5056946;28;32096;-74
2021/04/05 04:56:15;;;;;;;34.10;11.00;;;;;;;;;;5056992;28;33011;-73
2021/04/05 04:58:41;;;;;;;26.33;11.68;;;;;;;;;;5056411;28;32508;-74
2021/04/05 05:01:07;;;;;;;33.10;11.95;;;;;;;;;;5057337;28;32369;-74
2021/04/05 05:03:33;;;;;;;28.30;10.95;;;;;;;;;;5057771;28;31896;-74
2021/04/05 05:05:59;;;;;;;34.38;11.90;;;;;;;;;;5057557;28;32088;-74
2021/04/05 05:08:26;;;;;;;33.13;11.63;;;;;;;;;;5056245;28;33644;-74
2021/04/05 05:10:52;;;;;;;35.47;12.15;;;;;;;;;;5055694;28;31572;-73
2021/04/05 05:13:17;;;;;;;30.33;10.90;;;;;;;;;;5057804;28;32059;-73
2021/04/05 05:15:44;;;;;;;40.42;11.90;;;;;;;;;;5058180;28;31924;-73
2021/04/05 05:18:10;;;;;;;25.95;10.85;;;;;;;;;;5057804;28;32520;-74
2021/04/05 05:20:36;;;;;;;34.22;12.80;;;;;;;;;;5057524;28;32349;-74
2021/04/05 05:23:02;;;;;;;32.22;11.85;;;;;;;;;;5057545;28;32989;-73
2021/04/05 05:25:30;;;;;;;31.33;11.52;;;;;;;;;;5059644;28;32078;-72
2021/04/05 05:27:57;;;;;;;30.15;12.48;;;;;;;;;;5060413;28;33643;-73
2021/04/05 05:30:23;;;;;;;32.20;12.10;;;;;;;;;;5060556;28;32015;-73
2021/04/05 05:32:50;;;;;;;34.13;10.98;;;;;;;;;;5060845;28;32975;-74
2021/04/05 05:35:16;;;;;;;30.33;11.35;;;;;;;;;;5059330;28;30528;-73
2021/04/05 05:37:42;;;;;;;33.47;12.55;;;;;;;;;;5062120;28;34353;-74
2021/04/05 05:40:09;;;;;;;43.63;13.20;;;;;;;;;;5069539;28;33247;-74
2021/04/05 05:42:43;;;;;;;28.25;11.02;;;;;;;;;;5076688;28;31846;-73
2021/04/05 05:45:11;;;;;;;31.02;11.00;;;;;;;;;;5071891;28;33038;-72
2021/04/05 05:47:44;;;;;;;29.40;12.27;;;;;;;;;;5069686;28;33059;-72
2021/04/05 05:50:09;;;;;;;35.28;13.73;;;;;;;;;;5070269;28;32290;-72
2021/04/05 05:52:49;;;;;;;31.60;12.35;;;;;;;;;;5071503;28;31909;-73
2021/04/05 05:55:29;;;;;;;32.00;11.15;;;;;;;;;;5076181;28;32623;-73
2021/04/05 05:58:11;;;;;;;31.60;11.73;;;;;;;;;;5080597;28;32858;-75
2021/04/05 06:00:48;;;;;;;27.80;11.32;;;;;;;;;;5078984;28;32246;-76
2021/04/05 06:03:31;;;;;;;30.10;11.32;;;;;;;;;;5065076;28;31995;-76
2021/04/05 06:06:15;;;;;;;33.22;11.32;;;;;;;;;;5072290;28;33039;-74
2021/04/05 06:08:44;;;;;;;31.52;11.38;;;;;;;;;;5071387;28;32452;-72
2021/04/05 06:11:12;;;;;;;31.27;12.02;;;;;;;;;;5058973;28;33125;-72
2021/04/05 06:13:59;;;;;;;23.13;10.30;;;;;;;;;;5065428;28;31932;-72
2021/04/05 06:16:44;;;;;;;30.80;11.77;;;;;;;;;;5059321;28;32020;-72
2021/04/05 06:19:23;;;;;;;29.15;10.48;;;;;;;;;;5045835;28;32236;-73
2021/04/05 06:22:24;;;;;;;27.98;9.88;;;;;;;;;;5048044;28;32104;-72
2021/04/05 06:25:04;;;;;;;24.80;9.15;;;;;;;;;;5049887;28;32548;-72
2021/04/05 06:27:35;;;;;;;34.20;9.45;;;;;;;;;;5051581;28;31804;-71
2021/04/05 06:30:04;;;;;;;23.02;10.40;;;;;;;;;;5052140;28;32464;-72
2021/04/05 06:32:33;;;;;;;25.25;11.13;;;;;;;;;;5052849;28;32851;-72
2021/04/05 06:35:18;;;;;;;25.88;10.35;;;;;;;;;;5051466;28;32206;-71
2021/04/05 06:37:52;;;;;;;29.30;9.32;;;;;;;;;;5049778;28;32807;-71
2021/04/05 06:40:20;;;;;;;25.92;10.30;;;;;;;;;;5051680;28;32483;-76
2021/04/05 06:42:53;;;;;;;21.60;10.07;;;;;;;;;;5053020;28;30848;-75
2021/04/05 06:45:22;;;;;;;24.33;10.30;;;;;;;;;;5053250;28;32100;-75
2021/04/05 06:47:55;;;;;;;20.95;7.70;;;;;;;;;;5050585;28;32974;-75
2021/04/05 06:50:38;;;;;;;29.02;8.65;;;;;;;;;;5052402;28;33245;-74
2021/04/05 06:53:07;;;;;;;29.05;9.18;;;;;;;;;;5052226;28;37705;-72
2021/04/05 06:55:33;;;;;;;31.05;9.55;;;;;;;;;;5039102;28;31481;-70
2021/04/05 06:58:18;;;;;;;19.13;8.63;;;;;;;;;;5048965;28;31493;-72
2021/04/05 07:00:59;;;;;;;17.35;4.53;;;;;;;;;;5055421;28;32723;-72
2021/04/05 07:03:31;;;;;;;10.45;2.92;;;;;;;;;;5046245;28;32167;-71
2021/04/05 07:05:57;;;;;;;11.35;2.35;;;;;;;;;;5065588;28;31980;-72
2021/04/05 07:08:25;;;;;;;8.65;2.97;;;;;;;;;;5064763;28;32095;-72
2021/04/05 07:11:03;;;;;;;7.32;2.30;;;;;;;;;;5064122;28;32543;-72
2021/04/05 07:13:37;;;;;;;12.85;3.33;;;;;;;;;;5063020;28;32155;-70
2021/04/05 07:16:03;;;;;;;10.18;2.95;;;;;;;;;;5054365;28;32835;-72
2021/04/05 07:18:48;;;;;;;17.30;3.38;;;;;;;;;;5063067;28;31918;-73
2021/04/05 07:21:32;;;;;;;16.02;4.50;;;;;;;;;;5062822;28;32425;-72
2021/04/05 07:24:16;;;;;;;13.85;3.22;;;;;;;;;;5067305;28;32216;-72
2021/04/05 07:26:42;;;;;;;11.90;2.60;;;;;;;;;;5062913;28;31664;-72
2021/04/05 07:29:10;;;;;;;16.20;2.85;;;;;;;;;;5059262;28;32009;-73
2021/04/05 07:31:36;;;;;;;9.18;2.55;;;;;;;;;;5056795;28;42076;-72
2021/04/05 07:34:12;;;;;;;13.82;2.70;;;;;;;;;;5056689;28;32026;-72
2021/04/05 07:36:41;;;;;;;14.32;3.53;;;;;;;;;;5069276;28;20140;-72
2021/04/05 07:39:16;;;;;;;16.95;3.10;;;;;;;;;;5075851;28;31909;-72
2021/04/05 07:41:42;;;;;;;19.55;4.30;;;;;;;;;;5074545;28;33732;-72
2021/04/05 07:44:12;;;;;;;12.98;3.46;;;;;;;;;;4504638;28;7269666;-72
2021/04/05 07:46:51;;;;;;;2.55;1.40;;;;;;;;;;2370508;28;20665097;-72
2021/04/05 07:49:16;;;;;;;;;;;;;;;;;;2807028;28;10531593;-73
2021/04/05 07:51:54;;;;;;;16.75;3.08;;;;;;;;;;5002561;28;614534;-72
2021/04/05 07:55:05;;;;;;;;;;;;;;;;;;4012284;28;36248006;-72
2021/04/05 07:57:50;;;;;;;4.85;1.90;;;;;;;;;;7;11890953;36899556;-72
2021/04/05 08:00:44;;;;;;;9.60;1.47;;;;;;;;;;1373474;28;20717223;-73
2021/04/05 08:03:41;;;;;;;7.90;1.50;;;;;;;;;;15;9007065;13591859;-74
2021/04/05 08:06:15;;;;;;;3.23;1.33;;;;;;;;;;25;6005665;7508197;-74
2021/04/05 08:08:54;;;;;;;3.03;0.74;;;;;;;;;;25;6005582;7507009;-74
2021/04/05 08:11:52;;;;;;;4.08;1.32;;;;;;;;;;23;6005805;7535049;-74
2021/04/05 08:14:50;;;;;;;2.00;0.80;;;;;;;;;;25;6005578;7534860;-74
2021/04/05 08:17:36;;;;;;;5.20;1.63;;;;;;;;;;25;6005752;7535050;-73
2021/04/05 08:20:32;;;;;;;9.57;2.00;;;;;;;;;;26;6005680;6291165;-74
2021/04/05 08:23:12;;;;;;;11.16;1.64;;;;;;;;;;26;6005374;6296761;-74
2021/04/05 08:26:06;;;;;;;9.06;2.33;;;;;;;;;;25;6005608;7507871;-73
2021/04/05 08:28:51;;;;;;;10.45;1.75;;;;;;;;;;25;6005817;7507312;-74
2021/04/05 08:31:48;;;;;;;17.19;2.09;;;;;;;;;;26;6005688;7863601;-73
2021/04/05 08:34:30;;;;;;;10.34;2.07;;;;;;;;;;25;6005871;8829951;-73
2021/04/05 08:37:13;;;;;;;12.85;3.60;;;;;;;;;;25;6005615;7506428;-73
2021/04/05 08:40:05;;;;;;;9.40;1.90;;;;;;;;;;25;6005511;7506829;-73
2021/04/05 08:42:46;;;;;;;15.80;2.20;;;;;;;;;;25;6005788;7507396;-73
2021/04/05 08:45:23;;;;;;;15.51;2.93;;;;;;;;;;25;6005773;7506873;-73
2021/04/05 08:48:07;;;;;;;13.84;3.01;;;;;;;;;;25;6005498;7507887;-72
2021/04/05 08:50:54;;;;;;;20.10;3.09;;;;;;;;;;25;6005939;7534415;-73
2021/04/05 08:53:34;;;;;;;15.57;2.89;;;;;;;;;;26;6005792;6212452;-73
2021/04/05 08:56:07;;;;;;;12.90;2.80;;;;;;;;;;25;6005760;7376494;-74
2021/04/05 08:59:19;;;;;;;14.10;2.95;;;;;;;;;;24;6005728;7527743;-73
2021/04/05 09:02:04;;;;;;;11.74;1.99;;;;;;;;;;26;6005619;7712414;-73
2021/04/05 09:04:37;;;;;;;14.35;2.95;;;;;;;;;;25;6005812;7506509;-74
2021/04/05 09:07:31;;;;;;;7.64;1.74;;;;;;;;;;25;6005754;7533562;-74
2021/04/05 09:10:05;;;;;;;13.70;2.50;;;;;;;;;;25;6005714;7506749;-74
2021/04/05 09:12:42;;;;;;;6.61;1.70;;;;;;;;;;25;6005759;7507572;-74
2021/04/05 09:15:32;;;;;;;14.21;2.10;;;;;;;;;;24;6005809;7507373;-73
2021/04/05 09:18:14;;;;;;;12.60;1.97;;;;;;;;;;26;6005625;7712689;-74
2021/04/05 09:20:57;;;;;;;15.72;2.10;;;;;;;;;;26;6005643;6673175;-72
2021/04/05 09:23:48;;;;;;;15.45;2.30;;;;;;;;;;25;6005907;7506215;-72
2021/04/05 09:26:44;;;;;;;6.05;1.90;;;;;;;;;;25;6005649;7527187;-73
2021/04/05 09:29:20;;;;;;;8.70;1.60;;;;;;;;;;24;6005525;7509089;-74
2021/04/05 09:31:54;;;;;;;9.54;1.87;;;;;;;;;;25;6005636;7507589;-70
2021/04/05 09:34:45;;;;;;;10.25;1.60;;;;;;;;;;24;6005827;7534197;-72
2021/04/05 09:37:22;;;;;;;;;;;;;;;;;;24;6005867;7534980;-73
2021/04/05 09:40:07;;;;;;;10.77;1.93;;;;;;;;;;24;6005310;7507802;-72
2021/04/05 09:42:58;;;;;;;5.55;1.65;;;;;;;;;;24;5996410;7527943;-72
2021/04/05 09:45:43;;;;;;;7.20;1.70;;;;;;;;;;24;6005474;7508068;-72
2021/04/05 09:48:42;;;;;;;6.88;1.95;;;;;;;;;;24;6005494;7686066;-74
2021/04/05 09:51:30;;;;;;;9.88;1.97;;;;;;;;;;24;6005411;7536226;-73
2021/04/05 09:54:11;;;;;;;10.85;2.15;;;;;;;;;;24;6005510;7535284;-74
2021/04/05 09:56:50;;;;;;;14.24;2.61;;;;;;;;;;24;6005835;7534795;-73
2021/04/05 09:59:55;;;;;;;21.15;2.42;;;;;;;;;;24;6005514;7535176;-73
2021/04/05 10:02:35;;;;;;;7.85;1.50;;;;;;;;;;24;6005632;7534879;-72
2021/04/05 10:05:11;;;;;;;9.40;1.80;;;;;;;;;;23;5924624;7534784;-73
2021/04/05 10:07:49;;;;;;;7.63;1.80;;;;;;;;;;24;6005829;7686075;-73
2021/04/05 10:10:25;;;;;;;12.40;1.97;;;;;;;;;;24;6005680;9007005;-72
2021/04/05 10:13:03;;;;;;;9.77;1.65;;;;;;;;;;24;6005976;7534996;-72
2021/04/05 10:15:42;;;;;;;10.59;1.77;;;;;;;;;;24;6005780;7526874;-72
2021/04/05 10:18:20;;;;;;;10.58;2.57;;;;;;;;;;24;6005915;7527095;-73
2021/04/05 10:20:57;;;;;;;9.68;1.78;;;;;;;;;;24;6005805;7533964;-73
2021/04/05 10:23:30;;;;;;;8.45;1.70;;;;;;;;;;24;6005625;7535158;-73
2021/04/05 10:26:05;;;;;;;7.67;1.33;;;;;;;;;;23;6005730;7542270;-72
2021/04/05 10:28:46;;;;;;;13.74;3.46;;;;;;;;;;23;6005786;7713108;-73
2021/04/05 10:31:22;;;;;;;8.75;2.70;;;;;;;;;;22;6005769;9007947;-73
2021/04/05 10:33:49;;;;;;;11.63;1.95;;;;;;;;;;4212843;28;9007680;-73
2021/04/05 10:36:20;;;;;;;12.63;2.30;;;;;;;;;;5043899;28;32977;-72
2021/04/05 10:38:46;;;;;;;12.05;1.67;;;;;;;;;;5050292;28;31444;-73
2021/04/05 10:41:15;;;;;;;18.63;2.65;;;;;;;;;;5058291;28;32090;-72
2021/04/05 10:43:44;;;;;;;15.02;2.30;;;;;;;;;;5058397;28;31851;-72
2021/04/05 10:46:14;;;;;;;8.63;1.95;;;;;;;;;;5043659;28;32188;-73
2021/04/05 10:48:43;;;;;;;6.85;1.88;;;;;;;;;;5051550;28;32052;-72
2021/04/05 10:51:20;;;;;;;9.45;1.40;;;;;;;;;;5057081;28;31798;-72
2021/04/05 10:53:48;;;;;;;9.05;1.83;;;;;;;;;;5048736;28;33410;-74
2021/04/05 10:56:14;;;;;;;14.27;3.28;;;;;;;;;;5049363;28;31644;-71
2021/04/05 10:58:56;;;;;;;9.95;1.60;;;;;;;;;;5054038;28;32646;-72
2021/04/05 11:01:25;;;;;;;12.77;2.13;;;;;;;;;;5052188;28;30827;-75
2021/04/05 11:03:52;;;;;;;19.17;3.20;;;;;;;;;;5049426;28;32730;-72
2021/04/05 11:06:19;;;;;;;21.10;3.33;;;;;;;;;;5044901;28;31780;-74
2021/04/05 11:08:47;;;;;;;12.60;2.42;;;;;;;;;;5052104;28;33553;-73
2021/04/05 11:11:19;;;;;;;20.45;3.28;;;;;;;;;;5049447;28;33179;-72
2021/04/05 11:13:47;;;;;;;10.48;1.65;;;;;;;;;;5052665;28;33899;-73
2021/04/05 11:16:15;;;;;;;12.95;2.28;;;;;;;;;;5043580;28;32777;-73
2021/04/05 11:18:45;;;;;;;10.50;2.75;;;;;;;;;;5053258;28;33281;-73
2021/04/05 11:21:12;;;;;;;11.80;2.22;;;;;;;;;;5056587;28;32797;-72
2021/04/05 11:23:39;;;;;;;10.02;2.22;;;;;;;;;;5057624;28;31996;-72
2021/04/05 11:26:05;;;;;;;7.47;1.50;;;;;;;;;;5043645;28;32028;-72
2021/04/05 11:28:32;;;;;;;6.65;1.45;;;;;;;;;;5056139;28;32687;-72
2021/04/05 11:31:02;;;;;;;13.52;1.92;;;;;;;;;;5057575;28;33173;-72
2021/04/05 11:33:29;;;;;;;11.65;1.77;;;;;;;;;;5058209;28;31624;-72
2021/04/05 11:35:55;;;;;;;10.13;1.83;;;;;;;;;;5052408;28;31690;-73
2021/04/05 11:38:22;;;;;;;12.98;2.00;;;;;;;;;;5056245;28;32145;-72
2021/04/05 11:40:48;;;;;;;15.77;3.00;;;;;;;;;;5056241;28;32307;-73
2021/04/05 11:43:18;;;;;;;11.50;2.95;;;;;;;;;;5056127;28;31784;-72
2021/04/05 11:45:51;;;;;;;9.55;1.98;;;;;;;;;;5047649;28;32153;-72
2021/04/05 11:48:21;;;;;;;15.27;1.95;;;;;;;;;;5048329;28;46128;-73
2021/04/05 11:50:47;;;;;;;13.68;3.35;;;;;;;;;;5057986;28;32336;-73
2021/04/05 11:53:32;;;;;;;9.13;1.92;;;;;;;;;;5057910;28;32807;-73
2021/04/05 11:56:02;;;;;;;11.05;2.40;;;;;;;;;;5048554;28;33029;-73
2021/04/05 11:58:31;;;;;;;12.25;3.90;;;;;;;;;;5052182;28;33341;-73
2021/04/05 12:01:03;;;;;;;16.40;3.28;;;;;;;;;;5049639;28;31970;-72
2021/04/05 12:03:33;;;;;;;14.02;2.00;;;;;;;;;;5047886;28;31991;-72
2021/04/05 12:06:20;;;;;;;8.27;2.28;;;;;;;;;;5041257;28;32955;-72
2021/04/05 12:08:55;;;;;;;8.02;1.02;;;;;;;;;;5051116;28;40995;-71
2021/04/05 12:11:23;;;;;;;6.47;1.45;;;;;;;;;;5056326;28;32167;-74
2021/04/05 12:13:51;;;;;;;8.02;1.58;;;;;;;;;;5053005;28;31954;-71
2021/04/05 12:16:22;;;;;;;12.10;1.30;;;;;;;;;;5041112;28;32552;-72
2021/04/05 12:18:49;;;;;;;7.40;1.75;;;;;;;;;;5054092;28;30498;-72
2021/04/05 12:21:15;;;;;;;7.18;1.42;;;;;;;;;;5055489;28;31900;-71
2021/04/05 12:23:42;;;;;;;3.70;1.05;;;;;;;;;;5055756;28;31425;-71
2021/04/05 12:26:07;;;;;;;8.65;1.45;;;;;;;;;;5043188;28;32164;-72
2021/04/05 12:28:35;;;;;;;6.60;1.65;;;;;;;;;;5055744;28;32262;-72
2021/04/05 12:31:01;;;;;;;7.80;1.48;;;;;;;;;;5059960;28;30484;-72
2021/04/05 12:33:28;;;;;;;11.57;1.90;;;;;;;;;;5056930;28;31925;-72
2021/04/05 12:35:56;;;;;;;9.80;1.92;;;;;;;;;;5052654;28;32177;-72
2021/04/05 12:38:26;;;;;;;10.93;1.52;;;;;;;;;;5057050;28;32240;-72
2021/04/05 12:40:52;;;;;;;9.80;1.83;;;;;;;;;;5063982;28;33119;-73
2021/04/05 12:43:22;;;;;;;15.68;2.65;;;;;;;;;;5060770;28;32044;-72
2021/04/05 12:45:50;;;;;;;9.05;1.35;;;;;;;;;;5066689;28;33024;-71
2021/04/05 12:48:20;;;;;;;3.47;1.27;;;;;;;;;;5065239;28;33508;-71
2021/04/05 12:50:46;;;;;;;15.85;1.50;;;;;;;;;;5071375;28;33027;-71
2021/04/05 12:53:12;;;;;;;7.10;1.65;;;;;;;;;;5063043;28;31780;-71
2021/04/05 12:55:41;;;;;;;9.52;1.40;;;;;;;;;;5061918;28;31655;-72
2021/04/05 12:58:07;;;;;;;8.65;1.90;;;;;;;;;;5065919;28;32575;-72
2021/04/05 13:00:39;;;;;;;11.18;1.58;;;;;;;;;;5073403;28;32007;-72
2021/04/05 13:03:04;;;;;;;9.60;3.15;;;;;;;;;;5082856;28;31936;-71
2021/04/05 13:05:40;;;;;;;9.20;1.67;;;;;;;;;;5065091;28;32982;-72
2021/04/05 13:08:18;;;;;;;13.68;1.85;;;;;;;;;;5066264;28;33894;-72
2021/04/05 13:10:50;;;;;;;11.00;1.92;;;;;;;;;;5071494;28;32191;-72
2021/04/05 13:13:19;;;;;;;8.95;1.23;;;;;;;;;;5080712;28;32951;-73
2021/04/05 13:15:45;;;;;;;12.65;1.92;;;;;;;;;;5056290;28;32107;-72
2021/04/05 13:18:13;;;;;;;10.50;1.30;;;;;;;;;;5061875;28;32528;-73
2021/04/05 13:20:44;;;;;;;10.25;1.55;;;;;;;;;;5063199;28;31889;-73
2021/04/05 13:23:09;;;;;;;7.90;1.58;;;;;;;;;;5063789;28;33509;-73
2021/04/05 13:25:53;;;;;;;8.95;1.55;;;;;;;;;;5054264;28;31999;-72
2021/04/05 13:28:20;;;;;;;7.63;1.23;;;;;;;;;;5054279;28;33662;-72
2021/04/05 13:30:48;;;;;;;10.18;1.23;;;;;;;;;;5062150;28;32405;-71
2021/04/05 13:33:14;;;;;;;16.58;1.35;;;;;;;;;;5063571;28;32557;-72
2021/04/05 13:35:40;;;;;;;7.25;1.40;;;;;;;;;;5059970;28;32051;-72
2021/04/05 13:38:08;;;;;;;4.07;0.98;;;;;;;;;;5063388;28;32391;-72
2021/04/05 13:40:35;;;;;;;14.25;1.52;;;;;;;;;;5061630;28;32810;-72
2021/04/05 13:43:11;;;;;;;9.98;1.40;;;;;;;;;;5061389;28;31614;-72
2021/04/05 13:45:40;;;;;;;9.20;1.40;;;;;;;;;;5052402;28;33663;-72
2021/04/05 13:48:09;;;;;;;14.02;1.50;;;;;;;;;;5058150;28;32247;-72
2021/04/05 13:50:35;;;;;;;8.50;1.58;;;;;;;;;;5055987;28;30683;-72
2021/04/05 13:53:05;;;;;;;3.08;0.85;;;;;;;;;;5059100;28;31934;-71
2021/04/05 13:55:31;;;;;;;11.45;1.25;;;;;;;;;;5050554;28;32204;-72
2021/04/05 13:57:58;;;;;;;10.68;1.60;;;;;;;;;;5058039;28;33560;-72
2021/04/05 14:00:28;;;;;;;9.90;1.85;;;;;;;;;;5058923;28;32208;-72
2021/04/05 14:03:00;;;;;;;7.10;1.55;;;;;;;;;;5059140;28;32830;-72
2021/04/05 14:05:30;;;;;;;8.52;1.00;;;;;;;;;;5050199;28;32952;-72
2021/04/05 14:07:58;;;;;;;12.15;1.58;;;;;;;;;;5045616;28;32250;-72
2021/04/05 14:10:24;;;;;;;7.38;1.83;;;;;;;;;;5059044;28;32284;-72
2021/04/05 14:12:51;;;;;;;7.97;0.93;;;;;;;;;;5059371;28;31465;-72
2021/04/05 14:15:23;;;;;;;7.72;0.93;;;;;;;;;;5052936;28;31994;-72
2021/04/05 14:17:50;;;;;;;4.95;0.98;;;;;;;;;;5046810;28;32294;-72
2021/04/05 14:20:19;;;;;;;9.70;1.38;;;;;;;;;;5057316;28;30652;-72
2021/04/05 14:23:00;;;;;;;10.45;2.00;;;;;;;;;;5058352;28;32904;-72
2021/04/05 14:25:29;;;;;;;5.20;1.05;;;;;;;;;;5050697;28;31934;-72
2021/04/05 14:28:15;;;;;;;11.57;1.60;;;;;;;;;;5045920;28;38155;-72
2021/04/05 14:30:42;;;;;;;9.65;1.95;;;;;;;;;;5057681;28;33189;-72
2021/04/05 14:33:11;;;;;;;5.60;1.38;;;;;;;;;;5055055;28;31975;-72
2021/04/05 14:35:41;;;;;;;4.72;1.10;;;;;;;;;;5057694;28;31748;-73
2021/04/05 14:38:09;;;;;;;4.97;1.30;;;;;;;;;;5057076;28;32477;-73
2021/04/05 14:40:36;;;;;;;6.90;1.20;;;;;;;;;;5058796;28;32276;-73
2021/04/05 14:43:06;;;;;;;8.05;1.75;;;;;;;;;;5058194;28;32883;-73
2021/04/05 14:45:32;;;;;;;7.13;1.30;;;;;;;;;;5054253;28;31900;-73
2021/04/05 14:47:59;;;;;;;12.07;2.75;;;;;;;;;;5050854;28;32551;-73
2021/04/05 14:50:37;;;;;;;12.15;2.75;;;;;;;;;;5054521;28;32332;-72
2021/04/05 14:53:05;;;;;;;10.60;2.45;;;;;;;;;;5059418;28;32886;-74
2021/04/05 14:55:34;;;;;;;11.88;1.75;;;;;;;;;;5056035;28;33001;-73